sensor_id;sensor_type;location;lat;lon;timestamp;P1;durP1;ratioP1;P2;durP2;ratioP2
16600;SDS011;34891;48.164;11.572;2024-01-11T00:03:39;28.07;;;7.77;;
16600;SDS011;34891;48.164;11.572;2024-01-11T00:08:41;5.17;;;3.07;;
16600;SDS011;34891;48.164;11.572;2024-01-11T00:13:45;17.63;;;5.00;;
16600;SDS011;34891;48.164;11.572;2024-01-11T00:18:48;9.13;;;3.28;;
16600;SDS011;34891;48.164;11.572;2024-01-11T00:23:51;14.70;;;6.40;;
16600;SDS011;34891;48.164;11.572;2024-01-11T00:28:54;25.53;;;7.13;;
16600;SDS011;34891;48.164;11.572;2024-01-11T00:33:57;3.95;;;1.25;;
16600;SDS011;34891;48.164;11.572;2024-01-11T00:39:00;41.67;;;10.63;;
16600;SDS011;34891;48.164;11.572;2024-01-11T00:44:04;20.13;;;6.50;;
16600;SDS011;34891;48.164;11.572;2024-01-11T00:54:09;24.87;;;6.30;;
16600;SDS011;34891;48.164;11.572;2024-01-11T00:59:13;22.83;;;8.33;;
16600;SDS011;34891;48.164;11.572;2024-01-11T01:09:18;23.77;;;6.30;;
16600;SDS011;34891;48.164;11.572;2024-01-11T01:14:22;26.43;;;7.07;;
16600;SDS011;34891;48.164;11.572;2024-01-11T01:19:25;36.73;;;9.43;;
16600;SDS011;34891;48.164;11.572;2024-01-11T01:24:28;12.00;;;3.93;;
16600;SDS011;34891;48.164;11.572;2024-01-11T01:29:32;21.07;;;6.17;;
16600;SDS011;34891;48.164;11.572;2024-01-11T01:34:34;10.45;;;2.60;;
16600;SDS011;34891;48.164;11.572;2024-01-11T01:39:37;17.60;;;5.93;;
16600;SDS011;34891;48.164;11.572;2024-01-11T01:44:41;28.13;;;8.27;;
16600;SDS011;34891;48.164;11.572;2024-01-11T01:54:47;1.30;;;0.60;;
16600;SDS011;34891;48.164;11.572;2024-01-11T01:59:52;20.27;;;5.90;;
16600;SDS011;34891;48.164;11.572;2024-01-11T02:04:55;14.20;;;4.70;;
16600;SDS011;34891;48.164;11.572;2024-01-11T02:09:58;11.27;;;2.53;;
16600;SDS011;34891;48.164;11.572;2024-01-11T02:15:02;25.40;;;7.37;;
16600;SDS011;34891;48.164;11.572;2024-01-11T02:20:05;24.17;;;5.57;;
16600;SDS011;34891;48.164;11.572;2024-01-11T02:25:10;16.33;;;6.38;;
16600;SDS011;34891;48.164;11.572;2024-01-11T02:30:13;35.05;;;6.82;;
16600;SDS011;34891;48.164;11.572;2024-01-11T02:35:16;30.27;;;9.83;;
16600;SDS011;34891;48.164;11.572;2024-01-11T02:40:20;18.60;;;6.47;;
16600;SDS011;34891;48.164;11.572;2024-01-11T02:45:24;19.13;;;6.57;;
16600;SDS011;34891;48.164;11.572;2024-01-11T02:50:27;15.40;;;4.40;;
16600;SDS011;34891;48.164;11.572;2024-01-11T02:55:31;14.60;;;4.23;;
16600;SDS011;34891;48.164;11.572;2024-01-11T03:00:33;26.10;;;7.13;;
16600;SDS011;34891;48.164;11.572;2024-01-11T03:05:36;23.40;;;7.97;;
16600;SDS011;34891;48.164;11.572;2024-01-11T03:10:40;12.17;;;3.67;;
16600;SDS011;34891;48.164;11.572;2024-01-11T03:15:43;8.30;;;3.88;;
16600;SDS011;34891;48.164;11.572;2024-01-11T03:20:46;12.70;;;5.93;;
16600;SDS011;34891;48.164;11.572;2024-01-11T03:25:50;28.27;;;7.43;;
16600;SDS011;34891;48.164;11.572;2024-01-11T03:30:52;21.80;;;4.15;;
16600;SDS011;34891;48.164;11.572;2024-01-11T03:35:55;11.60;;;3.43;;
16600;SDS011;34891;48.164;11.572;2024-01-11T03:40:59;16.73;;;5.07;;
16600;SDS011;34891;48.164;11.572;2024-01-11T03:46:02;16.88;;;4.90;;
16600;SDS011;34891;48.164;11.572;2024-01-11T03:51:05;31.93;;;8.53;;
16600;SDS011;34891;48.164;11.572;2024-01-11T03:56:09;16.87;;;4.50;;
16600;SDS011;34891;48.164;11.572;2024-01-11T04:06:18;8.13;;;3.07;;
16600;SDS011;34891;48.164;11.572;2024-01-11T04:11:24;10.67;;;4.37;;
16600;SDS011;34891;48.164;11.572;2024-01-11T04:16:29;3.13;;;1.00;;
16600;SDS011;34891;48.164;11.572;2024-01-11T04:21:31;24.07;;;7.43;;
16600;SDS011;34891;48.164;11.572;2024-01-11T04:26:35;28.00;;;8.90;;
16600;SDS011;34891;48.164;11.572;2024-01-11T04:31:38;32.30;;;9.90;;
16600;SDS011;34891;48.164;11.572;2024-01-11T04:36:41;24.70;;;7.47;;
16600;SDS011;34891;48.164;11.572;2024-01-11T04:41:45;30.07;;;9.23;;
16600;SDS011;34891;48.164;11.572;2024-01-11T04:46:47;23.75;;;6.88;;
16600;SDS011;34891;48.164;11.572;2024-01-11T04:51:50;16.30;;;6.57;;
16600;SDS011;34891;48.164;11.572;2024-01-11T04:56:54;16.67;;;4.60;;
16600;SDS011;34891;48.164;11.572;2024-01-11T05:01:57;14.67;;;4.70;;
16600;SDS011;34891;48.164;11.572;2024-01-11T05:06:59;28.63;;;8.80;;
16600;SDS011;34891;48.164;11.572;2024-01-11T05:12:05;36.92;;;9.65;;
16600;SDS011;34891;48.164;11.572;2024-01-11T05:17:07;30.63;;;9.17;;
16600;SDS011;34891;48.164;11.572;2024-01-11T05:22:10;22.10;;;6.70;;
16600;SDS011;34891;48.164;11.572;2024-01-11T05:27:14;19.50;;;5.77;;
16600;SDS011;34891;48.164;11.572;2024-01-11T05:32:17;10.77;;;3.45;;
16600;SDS011;34891;48.164;11.572;2024-01-11T05:37:19;22.80;;;5.43;;
16600;SDS011;34891;48.164;11.572;2024-01-11T05:42:24;20.67;;;7.17;;
16600;SDS011;34891;48.164;11.572;2024-01-11T05:47:27;10.40;;;3.17;;
16600;SDS011;34891;48.164;11.572;2024-01-11T05:52:29;5.57;;;2.03;;
16600;SDS011;34891;48.164;11.572;2024-01-11T05:57:34;14.77;;;6.18;;
16600;SDS011;34891;48.164;11.572;2024-01-11T06:02:37;15.10;;;4.15;;
16600;SDS011;34891;48.164;11.572;2024-01-11T06:07:40;28.63;;;9.50;;
16600;SDS011;34891;48.164;11.572;2024-01-11T06:12:44;34.73;;;8.60;;
16600;SDS011;34891;48.164;11.572;2024-01-11T06:17:47;23.90;;;8.37;;
16600;SDS011;34891;48.164;11.572;2024-01-11T06:22:50;28.13;;;8.67;;
16600;SDS011;34891;48.164;11.572;2024-01-11T06:27:54;21.73;;;6.20;;
16600;SDS011;34891;48.164;11.572;2024-01-11T06:32:57;24.55;;;7.07;;
16600;SDS011;34891;48.164;11.572;2024-01-11T06:37:59;10.23;;;3.40;;
16600;SDS011;34891;48.164;11.572;2024-01-11T06:43:04;20.57;;;4.73;;
16600;SDS011;34891;48.164;11.572;2024-01-11T06:48:06;3.47;;;1.60;;
16600;SDS011;34891;48.164;11.572;2024-01-11T06:53:09;15.77;;;5.60;;
16600;SDS011;34891;48.164;11.572;2024-01-11T06:58:15;28.47;;;9.40;;
16600;SDS011;34891;48.164;11.572;2024-01-11T07:03:18;15.77;;;5.73;;
16600;SDS011;34891;48.164;11.572;2024-01-11T07:08:21;16.33;;;4.67;;
16600;SDS011;34891;48.164;11.572;2024-01-11T07:13:25;33.97;;;9.27;;
16600;SDS011;34891;48.164;11.572;2024-01-11T07:18:27;8.95;;;3.63;;
16600;SDS011;34891;48.164;11.572;2024-01-11T07:23:30;18.40;;;6.33;;
16600;SDS011;34891;48.164;11.572;2024-01-11T07:28:34;19.17;;;6.00;;
16600;SDS011;34891;48.164;11.572;2024-01-11T07:33:38;14.30;;;5.57;;
16600;SDS011;34891;48.164;11.572;2024-01-11T07:38:41;21.03;;;6.17;;
16600;SDS011;34891;48.164;11.572;2024-01-11T07:43:45;7.67;;;3.17;;
16600;SDS011;34891;48.164;11.572;2024-01-11T07:48:55;15.40;;;5.83;;
16600;SDS011;34891;48.164;11.572;2024-01-11T07:53:57;22.40;;;7.10;;
16600;SDS011;34891;48.164;11.572;2024-01-11T07:59:01;8.73;;;5.20;;
16600;SDS011;34891;48.164;11.572;2024-01-11T08:04:04;25.42;;;6.70;;
16600;SDS011;34891;48.164;11.572;2024-01-11T08:09:07;14.83;;;5.03;;
16600;SDS011;34891;48.164;11.572;2024-01-11T08:14:13;20.43;;;6.33;;
16600;SDS011;34891;48.164;11.572;2024-01-11T08:19:17;20.63;;;6.47;;
16600;SDS011;34891;48.164;11.572;2024-01-11T08:24:19;7.10;;;2.30;;
16600;SDS011;34891;48.164;11.572;2024-01-11T08:29:23;25.77;;;8.50;;
16600;SDS011;34891;48.164;11.572;2024-01-11T08:34:26;25.42;;;8.43;;
16600;SDS011;34891;48.164;11.572;2024-01-11T08:39:29;28.67;;;8.50;;
16600;SDS011;34891;48.164;11.572;2024-01-11T08:44:34;31.47;;;7.77;;
16600;SDS011;34891;48.164;11.572;2024-01-11T08:49:37;25.03;;;7.97;;
16600;SDS011;34891;48.164;11.572;2024-01-11T08:54:40;26.13;;;9.77;;
16600;SDS011;34891;48.164;11.572;2024-01-11T08:59:44;23.43;;;8.37;;
16600;SDS011;34891;48.164;11.572;2024-01-11T09:04:47;33.22;;;11.02;;
16600;SDS011;34891;48.164;11.572;2024-01-11T09:09:50;39.93;;;11.77;;
16600;SDS011;34891;48.164;11.572;2024-01-11T09:14:59;46.17;;;14.90;;
16600;SDS011;34891;48.164;11.572;2024-01-11T09:20:01;34.88;;;10.38;;
16600;SDS011;34891;48.164;11.572;2024-01-11T09:25:04;49.17;;;13.03;;
16600;SDS011;34891;48.164;11.572;2024-01-11T09:30:10;46.97;;;13.75;;
16600;SDS011;34891;48.164;11.572;2024-01-11T09:35:13;44.57;;;13.77;;
16600;SDS011;34891;48.164;11.572;2024-01-11T09:40:17;48.20;;;11.33;;
16600;SDS011;34891;48.164;11.572;2024-01-11T09:45:21;52.13;;;14.53;;
16600;SDS011;34891;48.164;11.572;2024-01-11T09:50:24;51.20;;;15.20;;
16600;SDS011;34891;48.164;11.572;2024-01-11T09:55:27;57.17;;;15.23;;
16600;SDS011;34891;48.164;11.572;2024-01-11T10:00:31;35.23;;;11.13;;
16600;SDS011;34891;48.164;11.572;2024-01-11T10:05:34;46.33;;;13.50;;
16600;SDS011;34891;48.164;11.572;2024-01-11T10:10:38;54.53;;;14.77;;
16600;SDS011;34891;48.164;11.572;2024-01-11T10:15:43;33.88;;;11.68;;
16600;SDS011;34891;48.164;11.572;2024-01-11T10:20:46;41.90;;;12.80;;
16600;SDS011;34891;48.164;11.572;2024-01-11T10:25:50;45.17;;;14.50;;
16600;SDS011;34891;48.164;11.572;2024-01-11T10:30:54;37.27;;;11.10;;
16600;SDS011;34891;48.164;11.572;2024-01-11T10:40:59;44.37;;;12.90;;
16600;SDS011;34891;48.164;11.572;2024-01-11T10:46:04;38.37;;;10.80;;
16600;SDS011;34891;48.164;11.572;2024-01-11T10:51:09;40.13;;;12.90;;
16600;SDS011;34891;48.164;11.572;2024-01-11T10:56:15;44.87;;;13.67;;
16600;SDS011;34891;48.164;11.572;2024-01-11T11:01:19;49.67;;;14.55;;
16600;SDS011;34891;48.164;11.572;2024-01-11T11:06:23;10.13;;;3.43;;
16600;SDS011;34891;48.164;11.572;2024-01-11T11:11:26;10.37;;;3.17;;
16600;SDS011;34891;48.164;11.572;2024-01-11T11:21:34;42.10;;;13.90;;
16600;SDS011;34891;48.164;11.572;2024-01-11T11:26:43;52.47;;;15.60;;
16600;SDS011;34891;48.164;11.572;2024-01-11T11:31:46;42.70;;;13.07;;
16600;SDS011;34891;48.164;11.572;2024-01-11T11:36:56;36.90;;;11.43;;
16600;SDS011;34891;48.164;11.572;2024-01-11T11:41:58;46.85;;;14.95;;
16600;SDS011;34891;48.164;11.572;2024-01-11T11:52:06;47.10;;;13.97;;
16600;SDS011;34891;48.164;11.572;2024-01-11T11:57:16;44.80;;;13.77;;
16600;SDS011;34891;48.164;11.572;2024-01-11T12:02:18;56.77;;;15.67;;
16600;SDS011;34891;48.164;11.572;2024-01-11T12:07:23;50.07;;;13.13;;
16600;SDS011;34891;48.164;11.572;2024-01-11T12:12:26;45.95;;;12.48;;
16600;SDS011;34891;48.164;11.572;2024-01-11T12:17:32;45.92;;;12.90;;
16600;SDS011;34891;48.164;11.572;2024-01-11T12:22:36;35.53;;;10.20;;
16600;SDS011;34891;48.164;11.572;2024-01-11T12:27:39;34.97;;;8.70;;
16600;SDS011;34891;48.164;11.572;2024-01-11T12:32:46;45.00;;;11.50;;
16600;SDS011;34891;48.164;11.572;2024-01-11T12:37:53;49.30;;;14.60;;
16600;SDS011;34891;48.164;11.572;2024-01-11T12:42:57;52.30;;;14.17;;
16600;SDS011;34891;48.164;11.572;2024-01-11T12:48:01;36.22;;;11.55;;
16600;SDS011;34891;48.164;11.572;2024-01-11T12:53:10;45.88;;;12.82;;
16600;SDS011;34891;48.164;11.572;2024-01-11T12:58:20;54.28;;;14.98;;
16600;SDS011;34891;48.164;11.572;2024-01-11T13:03:24;47.35;;;12.95;;
16600;SDS011;34891;48.164;11.572;2024-01-11T13:08:30;39.80;;;12.83;;
16600;SDS011;34891;48.164;11.572;2024-01-11T13:13:33;50.33;;;15.70;;
16600;SDS011;34891;48.164;11.572;2024-01-11T13:18:37;48.58;;;14.38;;
16600;SDS011;34891;48.164;11.572;2024-01-11T13:23:41;50.60;;;14.70;;
16600;SDS011;34891;48.164;11.572;2024-01-11T13:28:44;46.73;;;14.87;;
16600;SDS011;34891;48.164;11.572;2024-01-11T13:33:48;56.90;;;15.13;;
16600;SDS011;34891;48.164;11.572;2024-01-11T13:38:52;56.87;;;15.57;;
16600;SDS011;34891;48.164;11.572;2024-01-11T13:43:54;49.03;;;14.43;;
16600;SDS011;34891;48.164;11.572;2024-01-11T13:48:57;45.83;;;13.70;;
16600;SDS011;34891;48.164;11.572;2024-01-11T13:54:02;44.83;;;14.40;;
16600;SDS011;34891;48.164;11.572;2024-01-11T14:04:07;43.17;;;14.60;;
16600;SDS011;34891;48.164;11.572;2024-01-11T14:09:11;48.40;;;12.97;;
16600;SDS011;34891;48.164;11.572;2024-01-11T14:14:14;47.90;;;15.53;;
16600;SDS011;34891;48.164;11.572;2024-01-11T14:19:20;58.20;;;16.60;;
16600;SDS011;34891;48.164;11.572;2024-01-11T14:24:25;56.42;;;16.15;;
16600;SDS011;34891;48.164;11.572;2024-01-11T14:29:36;64.73;;;18.70;;
16600;SDS011;34891;48.164;11.572;2024-01-11T14:34:41;71.87;;;18.00;;
16600;SDS011;34891;48.164;11.572;2024-01-11T14:39:45;53.37;;;16.33;;
16600;SDS011;34891;48.164;11.572;2024-01-11T14:44:48;58.28;;;16.75;;
16600;SDS011;34891;48.164;11.572;2024-01-11T14:49:50;59.73;;;16.60;;
16600;SDS011;34891;48.164;11.572;2024-01-11T14:54:55;59.40;;;16.27;;
16600;SDS011;34891;48.164;11.572;2024-01-11T14:59:57;50.78;;;15.77;;
16600;SDS011;34891;48.164;11.572;2024-01-11T15:05:01;46.33;;;13.43;;
16600;SDS011;34891;48.164;11.572;2024-01-11T15:10:05;54.13;;;16.43;;
16600;SDS011;34891;48.164;11.572;2024-01-11T15:15:08;62.57;;;17.07;;
16600;SDS011;34891;48.164;11.572;2024-01-11T15:20:11;51.87;;;15.40;;
16600;SDS011;34891;48.164;11.572;2024-01-11T15:25:16;62.20;;;17.55;;
16600;SDS011;34891;48.164;11.572;2024-01-11T15:30:20;58.13;;;15.30;;
16600;SDS011;34891;48.164;11.572;2024-01-11T15:35:23;55.10;;;16.73;;
16600;SDS011;34891;48.164;11.572;2024-01-11T15:40:27;52.03;;;17.23;;
16600;SDS011;34891;48.164;11.572;2024-01-11T15:45:30;55.83;;;15.43;;
16600;SDS011;34891;48.164;11.572;2024-01-11T15:50:36;57.30;;;15.87;;
16600;SDS011;34891;48.164;11.572;2024-01-11T15:55:41;52.83;;;15.87;;
16600;SDS011;34891;48.164;11.572;2024-01-11T16:00:43;54.03;;;15.80;;
16600;SDS011;34891;48.164;11.572;2024-01-11T16:05:46;59.10;;;16.60;;
16600;SDS011;34891;48.164;11.572;2024-01-11T16:10:50;56.27;;;15.57;;
16600;SDS011;34891;48.164;11.572;2024-01-11T16:15:53;56.67;;;15.25;;
16600;SDS011;34891;48.164;11.572;2024-01-11T16:20:58;58.53;;;18.07;;
16600;SDS011;34891;48.164;11.572;2024-01-11T16:26:02;47.40;;;14.87;;
16600;SDS011;34891;48.164;11.572;2024-01-11T16:31:05;52.90;;;15.93;;
16600;SDS011;34891;48.164;11.572;2024-01-11T16:36:08;60.30;;;17.47;;
16600;SDS011;34891;48.164;11.572;2024-01-11T16:41:13;8.52;;;4.60;;
16600;SDS011;34891;48.164;11.572;2024-01-11T16:46:17;21.00;;;7.53;;
16600;SDS011;34891;48.164;11.572;2024-01-11T16:51:23;57.00;;;17.40;;
16600;SDS011;34891;48.164;11.572;2024-01-11T16:56:27;41.00;;;12.27;;
16600;SDS011;34891;48.164;11.572;2024-01-11T17:06:32;17.13;;;5.23;;
16600;SDS011;34891;48.164;11.572;2024-01-11T17:11:39;59.45;;;16.17;;
16600;SDS011;34891;48.164;11.572;2024-01-11T17:16:42;56.90;;;16.73;;
16600;SDS011;34891;48.164;11.572;2024-01-11T17:21:45;65.87;;;17.20;;
16600;SDS011;34891;48.164;11.572;2024-01-11T17:26:50;59.23;;;17.50;;
16600;SDS011;34891;48.164;11.572;2024-01-11T17:31:53;51.10;;;14.57;;
16600;SDS011;34891;48.164;11.572;2024-01-11T17:36:56;61.60;;;17.90;;
16600;SDS011;34891;48.164;11.572;2024-01-11T17:42:00;62.23;;;17.30;;
16600;SDS011;34891;48.164;11.572;2024-01-11T17:52:05;57.60;;;17.30;;
16600;SDS011;34891;48.164;11.572;2024-01-11T17:57:09;41.23;;;12.63;;
16600;SDS011;34891;48.164;11.572;2024-01-11T18:07:15;42.83;;;12.53;;
16600;SDS011;34891;48.164;11.572;2024-01-11T18:12:19;8.53;;;4.53;;
16600;SDS011;34891;48.164;11.572;2024-01-11T18:17:22;43.57;;;12.47;;
16600;SDS011;34891;48.164;11.572;2024-01-11T18:22:25;42.27;;;12.33;;
16600;SDS011;34891;48.164;11.572;2024-01-11T18:27:33;35.97;;;9.80;;
16600;SDS011;34891;48.164;11.572;2024-01-11T18:37:38;33.17;;;10.40;;
16600;SDS011;34891;48.164;11.572;2024-01-11T18:42:43;48.55;;;15.05;;
16600;SDS011;34891;48.164;11.572;2024-01-11T18:47:45;42.55;;;13.88;;
16600;SDS011;34891;48.164;11.572;2024-01-11T18:52:48;48.97;;;13.73;;
16600;SDS011;34891;48.164;11.572;2024-01-11T18:57:52;52.57;;;13.63;;
16600;SDS011;34891;48.164;11.572;2024-01-11T19:02:56;27.53;;;8.77;;
16600;SDS011;34891;48.164;11.572;2024-01-11T19:07:59;47.10;;;12.43;;
16600;SDS011;34891;48.164;11.572;2024-01-11T19:13:03;40.47;;;12.77;;
16600;SDS011;34891;48.164;11.572;2024-01-11T19:18:06;43.70;;;12.75;;
16600;SDS011;34891;48.164;11.572;2024-01-11T19:23:11;52.50;;;15.30;;
16600;SDS011;34891;48.164;11.572;2024-01-11T19:28:15;48.10;;;14.00;;
16600;SDS011;34891;48.164;11.572;2024-01-11T19:33:18;51.05;;;15.20;;
16600;SDS011;34891;48.164;11.572;2024-01-11T19:38:22;66.10;;;15.68;;
16600;SDS011;34891;48.164;11.572;2024-01-11T19:43:26;40.47;;;11.53;;
16600;SDS011;34891;48.164;11.572;2024-01-11T19:48:29;22.55;;;7.63;;
16600;SDS011;34891;48.164;11.572;2024-01-11T19:53:31;31.97;;;9.73;;
16600;SDS011;34891;48.164;11.572;2024-01-11T19:58:35;28.60;;;9.60;;
16600;SDS011;34891;48.164;11.572;2024-01-11T20:03:39;46.33;;;13.43;;
16600;SDS011;34891;48.164;11.572;2024-01-11T20:08:42;22.87;;;7.37;;
16600;SDS011;34891;48.164;11.572;2024-01-11T20:13:46;22.33;;;6.83;;
16600;SDS011;34891;48.164;11.572;2024-01-11T20:18:49;6.97;;;2.40;;
16600;SDS011;34891;48.164;11.572;2024-01-11T20:23:52;38.63;;;11.23;;
16600;SDS011;34891;48.164;11.572;2024-01-11T20:28:56;32.83;;;9.43;;
16600;SDS011;34891;48.164;11.572;2024-01-11T20:33:59;10.23;;;3.90;;
16600;SDS011;34891;48.164;11.572;2024-01-11T20:39:04;36.40;;;9.77;;
16600;SDS011;34891;48.164;11.572;2024-01-11T20:44:08;35.27;;;9.07;;
16600;SDS011;34891;48.164;11.572;2024-01-11T20:49:11;19.33;;;5.73;;
16600;SDS011;34891;48.164;11.572;2024-01-11T20:54:14;21.47;;;5.07;;
16600;SDS011;34891;48.164;11.572;2024-01-11T20:59:19;9.70;;;4.03;;
16600;SDS011;34891;48.164;11.572;2024-01-11T21:04:22;32.00;;;10.68;;
16600;SDS011;34891;48.164;11.572;2024-01-11T21:09:24;40.53;;;11.37;;
16600;SDS011;34891;48.164;11.572;2024-01-11T21:14:29;33.87;;;11.07;;
16600;SDS011;34891;48.164;11.572;2024-01-11T21:24:34;32.57;;;8.87;;
16600;SDS011;34891;48.164;11.572;2024-01-11T21:29:38;52.00;;;12.70;;
16600;SDS011;34891;48.164;11.572;2024-01-11T21:34:41;26.50;;;7.50;;
16600;SDS011;34891;48.164;11.572;2024-01-11T21:39:44;37.43;;;10.93;;
16600;SDS011;34891;48.164;11.572;2024-01-11T21:44:49;44.97;;;11.80;;
16600;SDS011;34891;48.164;11.572;2024-01-11T21:49:52;47.10;;;10.17;;
16600;SDS011;34891;48.164;11.572;2024-01-11T21:54:55;39.57;;;11.90;;
16600;SDS011;34891;48.164;11.572;2024-01-11T21:59:59;35.63;;;11.07;;
16600;SDS011;34891;48.164;11.572;2024-01-11T22:05:02;42.80;;;12.63;;
16600;SDS011;34891;48.164;11.572;2024-01-11T22:10:06;36.17;;;11.63;;
16600;SDS011;34891;48.164;11.572;2024-01-11T22:15:11;34.42;;;9.90;;
16600;SDS011;34891;48.164;11.572;2024-01-11T22:25:16;29.50;;;9.30;;
16600;SDS011;34891;48.164;11.572;2024-01-11T22:30:20;25.07;;;7.57;;
16600;SDS011;34891;48.164;11.572;2024-01-11T22:35:23;25.45;;;6.93;;
16600;SDS011;34891;48.164;11.572;2024-01-11T22:40:25;17.27;;;5.23;;
16600;SDS011;34891;48.164;11.572;2024-01-11T22:45:29;10.57;;;4.37;;
16600;SDS011;34891;48.164;11.572;2024-01-11T22:50:35;28.43;;;8.37;;
16600;SDS011;34891;48.164;11.572;2024-01-11T22:55:38;25.63;;;6.37;;
16600;SDS011;34891;48.164;11.572;2024-01-11T23:00:42;21.13;;;5.93;;
16600;SDS011;34891;48.164;11.572;2024-01-11T23:05:54;26.90;;;9.27;;
16600;SDS011;34891;48.164;11.572;2024-01-11T23:10:56;29.43;;;8.03;;
16600;SDS011;34891;48.164;11.572;2024-01-11T23:16:00;13.37;;;5.90;;
16600;SDS011;34891;48.164;11.572;2024-01-11T23:21:03;7.20;;;3.47;;
16600;SDS011;34891;48.164;11.572;2024-01-11T23:26:09;24.03;;;6.63;;
16600;SDS011;34891;48.164;11.572;2024-01-11T23:31:13;23.10;;;7.50;;
16600;SDS011;34891;48.164;11.572;2024-01-11T23:36:15;11.40;;;5.88;;
16600;SDS011;34891;48.164;11.572;2024-01-11T23:41:19;14.97;;;4.93;;
16600;SDS011;34891;48.164;11.572;2024-01-11T23:46:23;22.37;;;7.43;;
16600;SDS011;34891;48.164;11.572;2024-01-11T23:51:27;7.40;;;4.13;;
16600;SDS011;34891;48.164;11.572;2024-01-11T23:56:31;17.10;;;3.00;;
